sensor_id;sensor_type;location;lat;lon;timestamp;pressure;altitude;pressure_sealevel;temperature;humidity
5298;BME280;14738;42.668;23.250;2023-02-22T00:00:17;48348.63;;;-141.90;35.36
5298;BME280;14738;42.668;23.250;2023-02-22T00:02:49;48350.59;;;-141.90;35.66
5298;BME280;14738;42.668;23.250;2023-02-22T00:05:17;48352.59;;;-141.90;36.03
5298;BME280;14738;42.668;23.250;2023-02-22T00:07:45;48402.22;;;-141.90;36.08
5298;BME280;14738;42.668;23.250;2023-02-22T00:10:11;48348.63;;;-141.90;35.94
5298;BME280;14738;42.668;23.250;2023-02-22T00:12:41;48378.38;;;-141.90;36.27
5298;BME280;14738;42.668;23.250;2023-02-22T00:15:07;48386.34;;;-141.90;36.76
5298;BME280;14738;42.668;23.250;2023-02-22T00:17:33;48386.34;;;-141.90;37.18
5298;BME280;14738;42.668;23.250;2023-02-22T00:19:58;48374.41;;;-141.90;37.15
5298;BME280;14738;42.668;23.250;2023-02-22T00:22:24;48374.41;;;-141.90;37.29
5298;BME280;14738;42.668;23.250;2023-02-22T00:24:49;48374.41;;;-141.90;37.62
5298;BME280;14738;42.668;23.250;2023-02-22T00:27:14;48412.13;;;-141.90;37.64
5298;BME280;14738;42.668;23.250;2023-02-22T00:29:45;48342.66;;;-141.90;38.12
5298;BME280;14738;42.668;23.250;2023-02-22T00:32:11;48380.38;;;-141.90;38.76
5298;BME280;14738;42.668;23.250;2023-02-22T00:34:36;48334.72;;;-141.90;38.73
5298;BME280;14738;42.668;23.250;2023-02-22T00:37:01;48376.41;;;-141.90;39.06
5298;BME280;14738;42.668;23.250;2023-02-22T00:39:29;48398.25;;;-141.90;39.31
5298;BME280;14738;42.668;23.250;2023-02-22T00:41:54;48386.34;;;-141.90;39.27
5298;BME280;14738;42.668;23.250;2023-02-22T00:44:21;48354.56;;;-141.90;39.36
5298;BME280;14738;42.668;23.250;2023-02-22T00:46:46;48376.41;;;-141.90;39.05
5298;BME280;14738;42.668;23.250;2023-02-22T00:49:12;48370.44;;;-141.90;39.12
5298;BME280;14738;42.668;23.250;2023-02-22T00:51:38;48354.56;;;-141.90;39.00
5298;BME280;14738;42.668;23.250;2023-02-22T00:54:03;48338.69;;;-141.90;38.98
5298;BME280;14738;42.668;23.250;2023-02-22T00:56:32;48378.38;;;-141.90;39.10
5298;BME280;14738;42.668;23.250;2023-02-22T00:58:58;48370.44;;;-141.90;39.39
5298;BME280;14738;42.668;23.250;2023-02-22T01:01:28;48366.47;;;-141.90;38.95
5298;BME280;14738;42.668;23.250;2023-02-22T01:03:54;48390.31;;;-141.90;39.02
5298;BME280;14738;42.668;23.250;2023-02-22T01:06:19;48356.56;;;-141.90;39.19
5298;BME280;14738;42.668;23.250;2023-02-22T01:08:46;48344.63;;;-141.90;38.61
5298;BME280;14738;42.668;23.250;2023-02-22T01:11:13;48366.47;;;-141.90;38.85
5298;BME280;14738;42.668;23.250;2023-02-22T01:13:39;48362.50;;;-141.90;39.00
5298;BME280;14738;42.668;23.250;2023-02-22T01:16:06;48382.34;;;-141.90;38.99
5298;BME280;14738;42.668;23.250;2023-02-22T01:18:35;48360.53;;;-141.90;39.14
5298;BME280;14738;42.668;23.250;2023-02-22T01:21:01;48370.44;;;-141.90;39.12
5298;BME280;14738;42.668;23.250;2023-02-22T01:23:27;48384.34;;;-141.90;39.28
5298;BME280;14738;42.668;23.250;2023-02-22T01:25:52;48344.63;;;-141.90;39.30
5298;BME280;14738;42.668;23.250;2023-02-22T01:28:18;48400.22;;;-141.90;39.74
5298;BME280;14738;42.668;23.250;2023-02-22T01:30:44;48368.47;;;-141.90;40.03
5298;BME280;14738;42.668;23.250;2023-02-22T01:33:09;48390.31;;;-141.90;40.26
5298;BME280;14738;42.668;23.250;2023-02-22T01:35:38;48386.34;;;-141.90;40.25
5298;BME280;14738;42.668;23.250;2023-02-22T01:38:07;48366.47;;;-141.90;40.10
5298;BME280;14738;42.668;23.250;2023-02-22T01:40:37;48388.31;;;-141.90;40.25
5298;BME280;14738;42.668;23.250;2023-02-22T01:45:48;48390.31;;;-141.90;40.41
5298;BME280;14738;42.668;23.250;2023-02-22T01:51:07;48372.44;;;-141.90;40.67
5298;BME280;14738;42.668;23.250;2023-02-22T01:53:59;48390.31;;;-141.90;40.51
5298;BME280;14738;42.668;23.250;2023-02-22T01:56:27;48378.38;;;-141.90;40.44
5298;BME280;14738;42.668;23.250;2023-02-22T01:58:57;48390.31;;;-141.90;40.22
5298;BME280;14738;42.668;23.250;2023-02-22T02:01:26;48380.38;;;-141.90;40.46
5298;BME280;14738;42.668;23.250;2023-02-22T02:03:58;48416.09;;;-141.90;40.68
5298;BME280;14738;42.668;23.250;2023-02-22T02:06:25;48412.13;;;-141.90;40.68
5298;BME280;14738;42.668;23.250;2023-02-22T02:11:39;48384.34;;;-141.90;41.21
5298;BME280;14738;42.668;23.250;2023-02-22T02:14:07;48384.34;;;-141.90;41.32
5298;BME280;14738;42.668;23.250;2023-02-22T02:16:39;48398.25;;;-141.90;40.94
5298;BME280;14738;42.668;23.250;2023-02-22T02:19:21;48356.56;;;-141.90;40.75
5298;BME280;14738;42.668;23.250;2023-02-22T02:21:56;48370.44;;;-141.90;41.61
5298;BME280;14738;42.668;23.250;2023-02-22T02:33:41;48384.34;;;-141.90;41.45
5298;BME280;14738;42.668;23.250;2023-02-22T02:36:25;48398.25;;;-141.90;41.42
5298;BME280;14738;42.668;23.250;2023-02-22T02:41:38;48382.34;;;-141.90;41.51
5298;BME280;14738;42.668;23.250;2023-02-22T02:47:27;48366.47;;;-141.90;41.06
5298;BME280;14738;42.668;23.250;2023-02-22T02:50:03;48410.16;;;-141.90;41.51
5298;BME280;14738;42.668;23.250;2023-02-22T02:52:32;48372.44;;;-141.90;40.92
5298;BME280;14738;42.668;23.250;2023-02-22T02:55:00;48384.34;;;-141.90;41.46
5298;BME280;14738;42.668;23.250;2023-02-22T02:57:27;48374.41;;;-141.90;41.64
5298;BME280;14738;42.668;23.250;2023-02-22T02:59:52;48402.22;;;-141.90;42.21
5298;BME280;14738;42.668;23.250;2023-02-22T03:10:37;48390.31;;;-141.90;43.37
5298;BME280;14738;42.668;23.250;2023-02-22T03:13:14;48408.16;;;-141.90;43.15
5298;BME280;14738;42.668;23.250;2023-02-22T03:15:51;48396.25;;;-141.90;43.32
5298;BME280;14738;42.668;23.250;2023-02-22T03:18:27;48402.22;;;-141.90;43.47
5298;BME280;14738;42.668;23.250;2023-02-22T03:23:37;48400.22;;;-141.90;43.34
5298;BME280;14738;42.668;23.250;2023-02-22T03:26:21;48352.59;;;-141.90;43.52
5298;BME280;14738;42.668;23.250;2023-02-22T03:28:51;48420.09;;;-141.90;44.11
5298;BME280;14738;42.668;23.250;2023-02-22T03:31:43;48396.25;;;-141.90;44.08
5298;BME280;14738;42.668;23.250;2023-02-22T03:34:25;48386.34;;;-141.90;44.36
5298;BME280;14738;42.668;23.250;2023-02-22T03:36:56;48422.06;;;-141.90;43.97
5298;BME280;14738;42.668;23.250;2023-02-22T03:39:25;48414.13;;;-141.90;44.20
5298;BME280;14738;42.668;23.250;2023-02-22T03:41:57;48410.16;;;-141.90;44.16
5298;BME280;14738;42.668;23.250;2023-02-22T03:44:26;48370.44;;;-141.90;44.28
5298;BME280;14738;42.668;23.250;2023-02-22T03:46:54;48414.13;;;-141.90;44.22
5298;BME280;14738;42.668;23.250;2023-02-22T03:49:36;48404.19;;;-141.90;44.25
5298;BME280;14738;42.668;23.250;2023-02-22T03:52:03;48402.22;;;-141.90;43.95
5298;BME280;14738;42.668;23.250;2023-02-22T03:54:30;48396.25;;;-141.90;43.50
5298;BME280;14738;42.668;23.250;2023-02-22T03:56:59;48390.31;;;-141.90;43.87
5298;BME280;14738;42.668;23.250;2023-02-22T03:59:28;48376.41;;;-141.90;43.72
5298;BME280;14738;42.668;23.250;2023-02-22T04:01:55;48410.16;;;-141.90;43.62
5298;BME280;14738;42.668;23.250;2023-02-22T04:04:22;48388.31;;;-141.90;43.81
5298;BME280;14738;42.668;23.250;2023-02-22T04:06:48;48398.25;;;-141.90;43.85
5298;BME280;14738;42.668;23.250;2023-02-22T04:09:15;48374.41;;;-141.90;43.65
5298;BME280;14738;42.668;23.250;2023-02-22T04:11:41;48418.09;;;-141.90;44.00
5298;BME280;14738;42.668;23.250;2023-02-22T04:14:07;48390.31;;;-141.90;43.88
5298;BME280;14738;42.668;23.250;2023-02-22T04:16:32;48398.25;;;-141.90;44.09
5298;BME280;14738;42.668;23.250;2023-02-22T04:18:58;48406.19;;;-141.90;44.39
5298;BME280;14738;42.668;23.250;2023-02-22T04:21:23;48374.41;;;-141.90;44.38
5298;BME280;14738;42.668;23.250;2023-02-22T04:23:49;48380.38;;;-141.90;44.28
5298;BME280;14738;42.668;23.250;2023-02-22T04:26:15;48443.91;;;-141.90;44.39
5298;BME280;14738;42.668;23.250;2023-02-22T04:28:40;48378.38;;;-141.90;44.38
5298;BME280;14738;42.668;23.250;2023-02-22T04:31:06;48370.44;;;-141.90;44.38
5298;BME280;14738;42.668;23.250;2023-02-22T04:33:31;48410.16;;;-141.90;44.41
5298;BME280;14738;42.668;23.250;2023-02-22T04:35:57;48402.22;;;-141.90;44.75
5298;BME280;14738;42.668;23.250;2023-02-22T04:38:24;48398.25;;;-141.90;44.96
5298;BME280;14738;42.668;23.250;2023-02-22T04:40:53;48394.28;;;-141.90;44.92
5298;BME280;14738;42.668;23.250;2023-02-22T04:43:19;48416.09;;;-141.90;45.01
5298;BME280;14738;42.668;23.250;2023-02-22T04:45:44;48370.44;;;-141.90;44.58
5298;BME280;14738;42.668;23.250;2023-02-22T04:48:10;48390.31;;;-141.90;45.11
5298;BME280;14738;42.668;23.250;2023-02-22T04:50:35;48390.31;;;-141.90;44.71
5298;BME280;14738;42.668;23.250;2023-02-22T04:53:01;48402.22;;;-141.90;45.27
5298;BME280;14738;42.668;23.250;2023-02-22T04:55:26;48396.25;;;-141.90;45.19
5298;BME280;14738;42.668;23.250;2023-02-22T04:57:55;48398.25;;;-141.90;45.27
5298;BME280;14738;42.668;23.250;2023-02-22T05:00:22;48404.19;;;-141.90;45.48
5298;BME280;14738;42.668;23.250;2023-02-22T05:02:49;48398.25;;;-141.90;45.44
5298;BME280;14738;42.668;23.250;2023-02-22T05:05:16;48392.28;;;-141.90;45.97
5298;BME280;14738;42.668;23.250;2023-02-22T05:07:42;48390.31;;;-141.90;46.36
5298;BME280;14738;42.668;23.250;2023-02-22T05:10:08;48390.31;;;-141.90;46.03
5298;BME280;14738;42.668;23.250;2023-02-22T05:12:35;48386.34;;;-141.90;46.32
5298;BME280;14738;42.668;23.250;2023-02-22T05:15:00;48414.13;;;-141.90;45.89
5298;BME280;14738;42.668;23.250;2023-02-22T05:17:26;48414.13;;;-141.90;46.29
5298;BME280;14738;42.668;23.250;2023-02-22T05:19:52;48402.22;;;-141.90;46.36
5298;BME280;14738;42.668;23.250;2023-02-22T05:22:17;48422.06;;;-141.90;46.00
5298;BME280;14738;42.668;23.250;2023-02-22T05:24:43;48402.22;;;-141.90;46.32
5298;BME280;14738;42.668;23.250;2023-02-22T05:27:08;48394.28;;;-141.90;45.90
5298;BME280;14738;42.668;23.250;2023-02-22T05:29:34;48394.28;;;-141.90;46.17
5298;BME280;14738;42.668;23.250;2023-02-22T05:31:59;48414.13;;;-141.90;46.37
5298;BME280;14738;42.668;23.250;2023-02-22T05:34:27;48406.19;;;-141.90;46.39
5298;BME280;14738;42.668;23.250;2023-02-22T05:36:52;48426.03;;;-141.90;46.64
5298;BME280;14738;42.668;23.250;2023-02-22T05:39:18;48422.06;;;-141.90;46.89
5298;BME280;14738;42.668;23.250;2023-02-22T05:41:43;48390.31;;;-141.90;47.06
5298;BME280;14738;42.668;23.250;2023-02-22T05:44:09;48398.25;;;-141.90;47.09
5298;BME280;14738;42.668;23.250;2023-02-22T05:46:34;48402.22;;;-141.90;44.98
5298;BME280;14738;42.668;23.250;2023-02-22T05:49:00;48370.44;;;-141.90;41.81
5298;BME280;14738;42.668;23.250;2023-02-22T05:51:25;48346.63;;;-141.90;38.67
5298;BME280;14738;42.668;23.250;2023-02-22T05:53:51;48370.44;;;-141.90;36.93
5298;BME280;14738;42.668;23.250;2023-02-22T05:56:23;48358.53;;;-141.90;34.63
5298;BME280;14738;42.668;23.250;2023-02-22T05:58:50;48402.22;;;-141.90;34.08
5298;BME280;14738;42.668;23.250;2023-02-22T06:01:15;48342.66;;;-141.90;32.19
5298;BME280;14738;42.668;23.250;2023-02-22T06:03:41;48344.63;;;-141.90;31.67
5298;BME280;14738;42.668;23.250;2023-02-22T06:06:06;48350.59;;;-141.90;30.92
5298;BME280;14738;42.668;23.250;2023-02-22T06:08:32;48374.41;;;-141.90;30.34
5298;BME280;14738;42.668;23.250;2023-02-22T06:10:57;48338.69;;;-141.90;30.19
5298;BME280;14738;42.668;23.250;2023-02-22T06:13:23;48358.53;;;-141.90;31.10
5298;BME280;14738;42.668;23.250;2023-02-22T06:15:48;48374.41;;;-141.90;30.83
5298;BME280;14738;42.668;23.250;2023-02-22T06:18:14;48350.59;;;-141.90;30.18
5298;BME280;14738;42.668;23.250;2023-02-22T06:20:39;48356.56;;;-141.90;30.24
5298;BME280;14738;42.668;23.250;2023-02-22T06:23:05;48372.44;;;-141.90;29.76
5298;BME280;14738;42.668;23.250;2023-02-22T06:25:31;48334.72;;;-141.90;29.61
5298;BME280;14738;42.668;23.250;2023-02-22T06:27:57;48338.69;;;-141.90;30.21
5298;BME280;14738;42.668;23.250;2023-02-22T06:30:24;48374.41;;;-141.90;30.54
5298;BME280;14738;42.668;23.250;2023-02-22T06:32:50;48346.63;;;-141.90;31.37
5298;BME280;14738;42.668;23.250;2023-02-22T06:35:15;48334.72;;;-141.90;30.74
5298;BME280;14738;42.668;23.250;2023-02-22T06:37:41;48314.88;;;-141.90;31.32
5298;BME280;14738;42.668;23.250;2023-02-22T06:40:07;48360.53;;;-141.90;29.80
5298;BME280;14738;42.668;23.250;2023-02-22T06:42:32;48350.59;;;-141.90;29.96
5298;BME280;14738;42.668;23.250;2023-02-22T06:44:58;48358.53;;;-141.90;29.61
5298;BME280;14738;42.668;23.250;2023-02-22T06:47:23;48358.53;;;-141.90;30.19
5298;BME280;14738;42.668;23.250;2023-02-22T06:49:56;48360.53;;;-141.90;30.56
5298;BME280;14738;42.668;23.250;2023-02-22T06:52:22;48334.72;;;-141.90;30.99
5298;BME280;14738;42.668;23.250;2023-02-22T06:54:49;48374.41;;;-141.90;30.72
5298;BME280;14738;42.668;23.250;2023-02-22T06:57:15;48350.59;;;-141.90;30.32
5298;BME280;14738;42.668;23.250;2023-02-22T06:59:41;48330.75;;;-141.90;29.96
5298;BME280;14738;42.668;23.250;2023-02-22T07:02:08;48322.81;;;-141.90;31.38
5298;BME280;14738;42.668;23.250;2023-02-22T07:04:33;48334.72;;;-141.90;31.06
5298;BME280;14738;42.668;23.250;2023-02-22T07:06:58;48336.69;;;-141.90;32.03
5298;BME280;14738;42.668;23.250;2023-02-22T07:09:24;48344.63;;;-141.90;32.90
5298;BME280;14738;42.668;23.250;2023-02-22T07:11:49;48328.75;;;-141.90;33.00
5298;BME280;14738;42.668;23.250;2023-02-22T07:14:18;48358.53;;;-141.90;33.25
5298;BME280;14738;42.668;23.250;2023-02-22T07:16:43;48336.69;;;-141.90;32.97
5298;BME280;14738;42.668;23.250;2023-02-22T07:19:08;48342.66;;;-141.90;33.01
5298;BME280;14738;42.668;23.250;2023-02-22T07:21:34;48370.44;;;-141.90;32.80
5298;BME280;14738;42.668;23.250;2023-02-22T07:23:59;48334.72;;;-141.90;32.58
5298;BME280;14738;42.668;23.250;2023-02-22T07:26:26;48354.56;;;-141.90;32.30
5298;BME280;14738;42.668;23.250;2023-02-22T07:28:51;48350.59;;;-141.90;32.56
5298;BME280;14738;42.668;23.250;2023-02-22T07:31:17;48322.81;;;-141.90;32.50
5298;BME280;14738;42.668;23.250;2023-02-22T07:33:44;48354.56;;;-141.90;32.63
5298;BME280;14738;42.668;23.250;2023-02-22T07:36:09;48350.59;;;-141.90;32.20
5298;BME280;14738;42.668;23.250;2023-02-22T07:38:35;48346.63;;;-141.90;32.17
5298;BME280;14738;42.668;23.250;2023-02-22T07:41:00;48344.63;;;-141.90;32.02
5298;BME280;14738;42.668;23.250;2023-02-22T07:43:27;48350.59;;;-141.90;32.53
5298;BME280;14738;42.668;23.250;2023-02-22T07:45:58;48362.50;;;-141.90;32.00
5298;BME280;14738;42.668;23.250;2023-02-22T07:48:26;48354.56;;;-141.90;31.62
5298;BME280;14738;42.668;23.250;2023-02-22T07:50:52;48368.47;;;-141.90;32.52
5298;BME280;14738;42.668;23.250;2023-02-22T07:53:23;48358.53;;;-141.90;31.86
5298;BME280;14738;42.668;23.250;2023-02-22T07:55:48;48376.41;;;-141.90;32.49
5298;BME280;14738;42.668;23.250;2023-02-22T07:58:19;48334.72;;;-141.90;31.36
5298;BME280;14738;42.668;23.250;2023-02-22T08:00:45;48354.56;;;-141.90;31.26
5298;BME280;14738;42.668;23.250;2023-02-22T08:03:15;48330.75;;;-141.90;31.16
5298;BME280;14738;42.668;23.250;2023-02-22T08:05:44;48340.66;;;-141.90;31.02
5298;BME280;14738;42.668;23.250;2023-02-22T08:08:10;48356.56;;;-141.90;31.14
5298;BME280;14738;42.668;23.250;2023-02-22T08:10:36;48330.75;;;-141.90;31.20
5298;BME280;14738;42.668;23.250;2023-02-22T08:13:03;48354.56;;;-141.90;30.65
5298;BME280;14738;42.668;23.250;2023-02-22T08:15:31;48350.59;;;-141.90;30.76
5298;BME280;14738;42.668;23.250;2023-02-22T08:17:59;48350.59;;;-141.90;30.94
5298;BME280;14738;42.668;23.250;2023-02-22T08:20:26;48334.72;;;-141.90;30.26
5298;BME280;14738;42.668;23.250;2023-02-22T08:22:52;48344.63;;;-141.90;30.64
5298;BME280;14738;42.668;23.250;2023-02-22T08:25:19;48350.59;;;-141.90;30.75
5298;BME280;14738;42.668;23.250;2023-02-22T08:27:45;48366.47;;;-141.90;31.06
5298;BME280;14738;42.668;23.250;2023-02-22T08:30:22;48354.56;;;-141.90;30.26
5298;BME280;14738;42.668;23.250;2023-02-22T08:32:48;48334.72;;;-141.90;30.74
5298;BME280;14738;42.668;23.250;2023-02-22T08:35:15;48376.41;;;-141.90;30.39
5298;BME280;14738;42.668;23.250;2023-02-22T08:37:46;48356.56;;;-141.90;29.94
5298;BME280;14738;42.668;23.250;2023-02-22T08:40:13;48348.63;;;-141.90;29.35
5298;BME280;14738;42.668;23.250;2023-02-22T08:42:41;48390.31;;;-141.90;29.66
5298;BME280;14738;42.668;23.250;2023-02-22T08:45:07;48348.63;;;-141.90;29.45
5298;BME280;14738;42.668;23.250;2023-02-22T08:47:33;48364.50;;;-141.90;29.23
5298;BME280;14738;42.668;23.250;2023-02-22T08:49:58;48366.47;;;-141.90;29.46
5298;BME280;14738;42.668;23.250;2023-02-22T08:52:24;48386.34;;;-141.90;29.26
5298;BME280;14738;42.668;23.250;2023-02-22T08:54:49;48340.66;;;-141.90;28.80
5298;BME280;14738;42.668;23.250;2023-02-22T08:57:14;48370.44;;;-141.90;29.11
5298;BME280;14738;42.668;23.250;2023-02-22T08:59:40;48342.66;;;-141.90;28.66
5298;BME280;14738;42.668;23.250;2023-02-22T09:02:17;48380.38;;;-141.90;28.40
5298;BME280;14738;42.668;23.250;2023-02-22T09:04:44;48356.56;;;-141.90;28.84
5298;BME280;14738;42.668;23.250;2023-02-22T09:07:10;48364.50;;;-141.90;28.07
5298;BME280;14738;42.668;23.250;2023-02-22T09:09:35;48380.38;;;-141.90;28.63
5298;BME280;14738;42.668;23.250;2023-02-22T09:12:02;48374.41;;;-141.90;28.17
5298;BME280;14738;42.668;23.250;2023-02-22T09:14:27;48390.31;;;-141.90;28.08
5298;BME280;14738;42.668;23.250;2023-02-22T09:16:53;48390.31;;;-141.90;27.85
5298;BME280;14738;42.668;23.250;2023-02-22T09:19:18;48338.69;;;-141.90;27.99
5298;BME280;14738;42.668;23.250;2023-02-22T09:21:44;48326.78;;;-141.90;28.30
5298;BME280;14738;42.668;23.250;2023-02-22T09:24:09;48394.28;;;-141.90;27.90
5298;BME280;14738;42.668;23.250;2023-02-22T09:26:38;48332.72;;;-141.90;27.98
5298;BME280;14738;42.668;23.250;2023-02-22T09:29:05;48396.25;;;-141.90;28.07
5298;BME280;14738;42.668;23.250;2023-02-22T09:31:42;48388.31;;;-141.90;27.64
5298;BME280;14738;42.668;23.250;2023-02-22T09:34:08;48384.34;;;-141.90;27.52
5298;BME280;14738;42.668;23.250;2023-02-22T09:36:40;48382.34;;;-141.90;27.54
5298;BME280;14738;42.668;23.250;2023-02-22T09:39:06;48368.47;;;-141.90;27.48
5298;BME280;14738;42.668;23.250;2023-02-22T09:46:41;48346.63;;;-141.90;27.27
5298;BME280;14738;42.668;23.250;2023-02-22T09:50:01;48346.63;;;-141.90;27.40
5298;BME280;14738;42.668;23.250;2023-02-22T09:52:32;48380.38;;;-141.90;27.12
5298;BME280;14738;42.668;23.250;2023-02-22T09:55:08;48386.34;;;-141.90;27.30
5298;BME280;14738;42.668;23.250;2023-02-22T09:57:41;48354.56;;;-141.90;26.95
5298;BME280;14738;42.668;23.250;2023-02-22T10:00:17;48384.34;;;-141.90;26.99
5298;BME280;14738;42.668;23.250;2023-02-22T10:05:16;48374.41;;;-141.90;26.97
5298;BME280;14738;42.668;23.250;2023-02-22T10:07:50;48348.63;;;-141.90;26.94
5298;BME280;14738;42.668;23.250;2023-02-22T10:10:21;48414.13;;;-141.90;26.50
5298;BME280;14738;42.668;23.250;2023-02-22T10:13:15;48394.28;;;-141.90;27.02
5298;BME280;14738;42.668;23.250;2023-02-22T10:15:51;48354.56;;;-141.90;26.99
5298;BME280;14738;42.668;23.250;2023-02-22T10:21:34;48386.34;;;-141.90;26.21
5298;BME280;14738;42.668;23.250;2023-02-22T10:26:39;48368.47;;;-141.90;25.50
5298;BME280;14738;42.668;23.250;2023-02-22T10:31:43;48398.25;;;-141.90;25.93
5298;BME280;14738;42.668;23.250;2023-02-22T10:34:22;48384.34;;;-141.90;26.83
5298;BME280;14738;42.668;23.250;2023-02-22T10:36:54;48390.31;;;-141.90;26.06
5298;BME280;14738;42.668;23.250;2023-02-22T10:39:28;48410.16;;;-141.90;25.63
5298;BME280;14738;42.668;23.250;2023-02-22T10:41:57;48394.28;;;-141.90;25.73
5298;BME280;14738;42.668;23.250;2023-02-22T10:44:30;48386.34;;;-141.90;25.07
5298;BME280;14738;42.668;23.250;2023-02-22T10:46:58;48396.25;;;-141.90;25.58
5298;BME280;14738;42.668;23.250;2023-02-22T10:49:26;48362.50;;;-141.90;25.58
5298;BME280;14738;42.668;23.250;2023-02-22T10:52:03;48370.44;;;-141.90;25.97
5298;BME280;14738;42.668;23.250;2023-02-22T10:54:38;48354.56;;;-141.90;25.56
5298;BME280;14738;42.668;23.250;2023-02-22T10:57:05;48406.19;;;-141.90;26.29
5298;BME280;14738;42.668;23.250;2023-02-22T10:59:33;48364.50;;;-141.90;25.50
5298;BME280;14738;42.668;23.250;2023-02-22T11:02:00;48380.38;;;-141.90;25.84
5298;BME280;14738;42.668;23.250;2023-02-22T11:04:44;48414.13;;;-141.90;25.00
5298;BME280;14738;42.668;23.250;2023-02-22T11:07:31;48342.66;;;-141.90;25.43
5298;BME280;14738;42.668;23.250;2023-02-22T11:10:06;48380.38;;;-141.90;25.34
5298;BME280;14738;42.668;23.250;2023-02-22T11:12:37;48394.28;;;-141.90;25.40
5298;BME280;14738;42.668;23.250;2023-02-22T11:17:45;48390.31;;;-141.90;24.92
5298;BME280;14738;42.668;23.250;2023-02-22T11:20:24;48378.38;;;-141.90;25.20
5298;BME280;14738;42.668;23.250;2023-02-22T11:22:56;48332.72;;;-141.90;24.54
5298;BME280;14738;42.668;23.250;2023-02-22T11:25:39;48380.38;;;-141.90;25.18
5298;BME280;14738;42.668;23.250;2023-02-22T11:28:27;48358.53;;;-141.90;25.04
5298;BME280;14738;42.668;23.250;2023-02-22T11:31:13;48386.34;;;-141.90;25.09
5298;BME280;14738;42.668;23.250;2023-02-22T11:36:30;48352.59;;;-141.90;24.43
5298;BME280;14738;42.668;23.250;2023-02-22T11:38:57;48380.38;;;-141.90;24.60
5298;BME280;14738;42.668;23.250;2023-02-22T11:41:33;48394.28;;;-141.90;25.02
5298;BME280;14738;42.668;23.250;2023-02-22T11:44:31;48378.38;;;-141.90;24.14
5298;BME280;14738;42.668;23.250;2023-02-22T11:46:59;48384.34;;;-141.90;24.44
5298;BME280;14738;42.668;23.250;2023-02-22T11:49:42;48372.44;;;-141.90;24.58
5298;BME280;14738;42.668;23.250;2023-02-22T11:52:23;48362.50;;;-141.90;24.36
5298;BME280;14738;42.668;23.250;2023-02-22T11:55:08;48388.31;;;-141.90;24.53
5298;BME280;14738;42.668;23.250;2023-02-22T12:00:51;48358.53;;;-141.90;24.14
5298;BME280;14738;42.668;23.250;2023-02-22T12:03:48;48390.31;;;-141.90;24.10
5298;BME280;14738;42.668;23.250;2023-02-22T12:19:38;48350.59;;;-141.90;23.39
5298;BME280;14738;42.668;23.250;2023-02-22T12:22:18;48390.31;;;-141.90;23.33
5298;BME280;14738;42.668;23.250;2023-02-22T12:24:50;48356.56;;;-141.90;24.04
5298;BME280;14738;42.668;23.250;2023-02-22T12:27:27;48390.31;;;-141.90;23.46
5298;BME280;14738;42.668;23.250;2023-02-22T12:30:04;48414.13;;;-141.90;23.81
5298;BME280;14738;42.668;23.250;2023-02-22T12:32:50;48362.50;;;-141.90;24.02
5298;BME280;14738;42.668;23.250;2023-02-22T12:35:22;48370.44;;;-141.90;24.45
5298;BME280;14738;42.668;23.250;2023-02-22T12:40:32;48374.41;;;-141.90;23.78
5298;BME280;14738;42.668;23.250;2023-02-22T12:46:09;48404.19;;;-141.90;23.37
5298;BME280;14738;42.668;23.250;2023-02-22T12:48:46;48352.59;;;-141.90;23.63
5298;BME280;14738;42.668;23.250;2023-02-22T12:54:20;48394.28;;;-141.90;24.31
5298;BME280;14738;42.668;23.250;2023-02-22T12:57:10;48362.50;;;-141.90;23.83
5298;BME280;14738;42.668;23.250;2023-02-22T13:02:27;48376.41;;;-141.90;24.09
5298;BME280;14738;42.668;23.250;2023-02-22T13:04:55;48374.41;;;-141.90;23.81
5298;BME280;14738;42.668;23.250;2023-02-22T13:07:39;48312.88;;;-141.90;24.12
5298;BME280;14738;42.668;23.250;2023-02-22T13:13:04;48360.53;;;-141.90;23.78
5298;BME280;14738;42.668;23.250;2023-02-22T13:18:34;48394.28;;;-141.90;23.95
5298;BME280;14738;42.668;23.250;2023-02-22T13:21:23;48356.56;;;-141.90;23.84
5298;BME280;14738;42.668;23.250;2023-02-22T13:23:59;48390.31;;;-141.90;23.76
5298;BME280;14738;42.668;23.250;2023-02-22T13:26:49;48358.53;;;-141.90;23.62
5298;BME280;14738;42.668;23.250;2023-02-22T13:29:23;48378.38;;;-141.90;23.77
5298;BME280;14738;42.668;23.250;2023-02-22T13:37:25;48380.38;;;-141.90;23.59
5298;BME280;14738;42.668;23.250;2023-02-22T13:42:52;48370.44;;;-141.90;24.05
5298;BME280;14738;42.668;23.250;2023-02-22T13:48:48;48350.59;;;-141.90;24.26
5298;BME280;14738;42.668;23.250;2023-02-22T13:56:42;48382.34;;;-141.90;24.77
5298;BME280;14738;42.668;23.250;2023-02-22T13:59:24;48384.34;;;-141.90;24.34
5298;BME280;14738;42.668;23.250;2023-02-22T14:01:51;48352.59;;;-141.90;24.69
5298;BME280;14738;42.668;23.250;2023-02-22T14:06:48;48368.47;;;-141.90;25.09
5298;BME280;14738;42.668;23.250;2023-02-22T14:09:15;48360.53;;;-141.90;24.62
5298;BME280;14738;42.668;23.250;2023-02-22T14:11:45;48378.38;;;-141.90;25.10
5298;BME280;14738;42.668;23.250;2023-02-22T14:14:13;48374.41;;;-141.90;24.84
5298;BME280;14738;42.668;23.250;2023-02-22T14:16:39;48360.53;;;-141.90;25.21
5298;BME280;14738;42.668;23.250;2023-02-22T14:21:33;48374.41;;;-141.90;25.21
5298;BME280;14738;42.668;23.250;2023-02-22T14:24:08;48334.72;;;-141.90;25.15
5298;BME280;14738;42.668;23.250;2023-02-22T14:26:37;48342.66;;;-141.90;25.56
5298;BME280;14738;42.668;23.250;2023-02-22T14:34:11;48378.38;;;-141.90;26.33
5298;BME280;14738;42.668;23.250;2023-02-22T14:36:43;48350.59;;;-141.90;26.01
5298;BME280;14738;42.668;23.250;2023-02-22T14:39:33;48384.34;;;-141.90;26.38
5298;BME280;14738;42.668;23.250;2023-02-22T14:44:58;48352.59;;;-141.90;26.49
5298;BME280;14738;42.668;23.250;2023-02-22T14:47:35;48354.56;;;-141.90;26.74
5298;BME280;14738;42.668;23.250;2023-02-22T14:50:13;48362.50;;;-141.90;26.50
5298;BME280;14738;42.668;23.250;2023-02-22T14:52:41;48362.50;;;-141.90;27.09